sensor_id;sensor_type;location;lat;lon;timestamp;pressure;altitude;pressure_sealevel;temperature;humidity
13719;BME280;6931;51.100;17.068;2022-07-04T00:00:13;100176.06;;;21.81;62.01
13719;BME280;6931;51.100;17.068;2022-07-04T00:02:41;100179.19;;;21.83;62.11
13719;BME280;6931;51.100;17.068;2022-07-04T00:05:09;100181.72;;;21.81;62.05
13719;BME280;6931;51.100;17.068;2022-07-04T00:07:41;100178.06;;;21.90;62.04
13719;BME280;6931;51.100;17.068;2022-07-04T00:10:09;100166.41;;;21.97;61.92
13719;BME280;6931;51.100;17.068;2022-07-04T00:12:37;100169.25;;;21.97;62.72
13719;BME280;6931;51.100;17.068;2022-07-04T00:15:05;100163.25;;;21.95;63.22
13719;BME280;6931;51.100;17.068;2022-07-04T00:17:32;100163.75;;;21.84;64.11
13719;BME280;6931;51.100;17.068;2022-07-04T00:19:58;100161.69;;;21.85;64.45
13719;BME280;6931;51.100;17.068;2022-07-04T00:22:25;100166.91;;;21.86;64.17
13719;BME280;6931;51.100;17.068;2022-07-04T00:24:52;100172.25;;;21.84;64.15
13719;BME280;6931;51.100;17.068;2022-07-04T00:27:18;100164.03;;;21.77;63.90
13719;BME280;6931;51.100;17.068;2022-07-04T00:29:45;100172.88;;;21.88;63.58
13719;BME280;6931;51.100;17.068;2022-07-04T00:32:12;100165.34;;;21.85;63.61
13719;BME280;6931;51.100;17.068;2022-07-04T00:34:38;100163.91;;;21.81;63.79
13719;BME280;6931;51.100;17.068;2022-07-04T00:37:05;100152.69;;;21.77;63.70
13719;BME280;6931;51.100;17.068;2022-07-04T00:39:32;100155.22;;;21.75;64.13
13719;BME280;6931;51.100;17.068;2022-07-04T00:42:04;100158.38;;;21.77;63.96
13719;BME280;6931;51.100;17.068;2022-07-04T00:44:32;100146.59;;;21.70;64.65
13719;BME280;6931;51.100;17.068;2022-07-04T00:47:02;100143.28;;;21.62;65.37
13719;BME280;6931;51.100;17.068;2022-07-04T00:49:29;100149.91;;;21.50;65.83
13719;BME280;6931;51.100;17.068;2022-07-04T00:51:56;100146.75;;;21.39;66.50
13719;BME280;6931;51.100;17.068;2022-07-04T00:54:25;100150.88;;;21.47;65.89
13719;BME280;6931;51.100;17.068;2022-07-04T00:56:53;100144.72;;;21.48;65.65
13719;BME280;6931;51.100;17.068;2022-07-04T00:59:21;100149.00;;;21.35;66.03
13719;BME280;6931;51.100;17.068;2022-07-04T01:01:49;100147.09;;;21.50;65.23
13719;BME280;6931;51.100;17.068;2022-07-04T01:04:17;100144.88;;;21.45;65.40
13719;BME280;6931;51.100;17.068;2022-07-04T01:06:44;100147.88;;;21.50;65.09
13719;BME280;6931;51.100;17.068;2022-07-04T01:09:12;100143.31;;;21.35;65.06
13719;BME280;6931;51.100;17.068;2022-07-04T01:11:39;100146.03;;;19.92;70.34
13719;BME280;6931;51.100;17.068;2022-07-04T01:14:05;100140.09;;;19.99;69.93
13719;BME280;6931;51.100;17.068;2022-07-04T01:16:33;100148.72;;;20.66;67.79
13719;BME280;6931;51.100;17.068;2022-07-04T01:18:59;100142.31;;;20.93;66.40
13719;BME280;6931;51.100;17.068;2022-07-04T01:21:26;100137.44;;;20.93;66.34
13719;BME280;6931;51.100;17.068;2022-07-04T01:23:53;100129.88;;;20.90;66.33
13719;BME280;6931;51.100;17.068;2022-07-04T01:26:19;100131.19;;;20.98;65.65
13719;BME280;6931;51.100;17.068;2022-07-04T01:28:47;100133.72;;;21.05;65.27
13719;BME280;6931;51.100;17.068;2022-07-04T01:31:13;100135.13;;;21.10;64.73
13719;BME280;6931;51.100;17.068;2022-07-04T01:33:40;100131.81;;;21.11;64.99
13719;BME280;6931;51.100;17.068;2022-07-04T01:36:07;100132.75;;;21.08;64.91
13719;BME280;6931;51.100;17.068;2022-07-04T01:38:33;100133.84;;;21.11;64.92
13719;BME280;6931;51.100;17.068;2022-07-04T01:41:00;100114.81;;;21.11;64.89
13719;BME280;6931;51.100;17.068;2022-07-04T01:43:26;100122.22;;;21.09;65.22
13719;BME280;6931;51.100;17.068;2022-07-04T01:45:53;100121.59;;;21.05;65.18
13719;BME280;6931;51.100;17.068;2022-07-04T01:48:20;100106.00;;;21.00;65.42
13719;BME280;6931;51.100;17.068;2022-07-04T01:50:46;100109.56;;;20.92;65.56
13719;BME280;6931;51.100;17.068;2022-07-04T01:53:13;100103.75;;;20.95;66.21
13719;BME280;6931;51.100;17.068;2022-07-04T01:55:39;100096.25;;;21.01;65.97
13719;BME280;6931;51.100;17.068;2022-07-04T01:58:06;100095.28;;;21.04;65.81
13719;BME280;6931;51.100;17.068;2022-07-04T02:00:33;100091.69;;;21.04;65.46
13719;BME280;6931;51.100;17.068;2022-07-04T02:03:18;100088.31;;;20.78;66.35
13719;BME280;6931;51.100;17.068;2022-07-04T02:05:44;100085.50;;;20.87;65.97
13719;BME280;6931;51.100;17.068;2022-07-04T02:08:11;100089.13;;;20.79;65.89
13719;BME280;6931;51.100;17.068;2022-07-04T02:10:37;100088.47;;;20.75;65.64
13719;BME280;6931;51.100;17.068;2022-07-04T02:13:04;100094.00;;;20.78;65.65
13719;BME280;6931;51.100;17.068;2022-07-04T02:18:07;100089.13;;;20.79;65.62
13719;BME280;6931;51.100;17.068;2022-07-04T02:20:35;100087.56;;;20.78;65.54
13719;BME280;6931;51.100;17.068;2022-07-04T02:23:03;100083.94;;;20.86;65.39
13719;BME280;6931;51.100;17.068;2022-07-04T02:25:31;100090.25;;;20.81;65.17
13719;BME280;6931;51.100;17.068;2022-07-04T02:27:58;100095.88;;;20.63;65.91
13719;BME280;6931;51.100;17.068;2022-07-04T02:30:25;100098.06;;;20.68;65.92
13719;BME280;6931;51.100;17.068;2022-07-04T02:32:52;100093.69;;;20.67;65.29
13719;BME280;6931;51.100;17.068;2022-07-04T02:35:18;100093.00;;;20.54;66.10
13719;BME280;6931;51.100;17.068;2022-07-04T02:37:45;100094.63;;;19.85;68.23
13719;BME280;6931;51.100;17.068;2022-07-04T02:40:12;100111.16;;;20.17;67.60
13719;BME280;6931;51.100;17.068;2022-07-04T02:42:38;100104.91;;;20.31;66.91
13719;BME280;6931;51.100;17.068;2022-07-04T02:45:06;100112.28;;;19.98;68.06
13719;BME280;6931;51.100;17.068;2022-07-04T02:47:33;100108.75;;;19.85;69.22
13719;BME280;6931;51.100;17.068;2022-07-04T02:50:01;100107.72;;;20.22;67.49
13719;BME280;6931;51.100;17.068;2022-07-04T02:52:30;100104.91;;;20.31;66.83
13719;BME280;6931;51.100;17.068;2022-07-04T02:54:57;100120.13;;;20.24;67.22
13719;BME280;6931;51.100;17.068;2022-07-04T02:57:24;100111.97;;;20.26;66.79
13719;BME280;6931;51.100;17.068;2022-07-04T02:59:51;100112.72;;;20.18;67.01
13719;BME280;6931;51.100;17.068;2022-07-04T03:02:18;100118.75;;;20.29;66.66
13719;BME280;6931;51.100;17.068;2022-07-04T03:04:45;100099.69;;;20.20;66.92
13719;BME280;6931;51.100;17.068;2022-07-04T03:07:12;100097.06;;;20.35;66.39
13719;BME280;6931;51.100;17.068;2022-07-04T03:09:39;100104.13;;;20.00;67.61
13719;BME280;6931;51.100;17.068;2022-07-04T03:12:06;100103.53;;;20.05;67.69
13719;BME280;6931;51.100;17.068;2022-07-04T03:14:33;100103.09;;;20.15;67.56
13719;BME280;6931;51.100;17.068;2022-07-04T03:16:59;100108.19;;;20.29;67.29
13719;BME280;6931;51.100;17.068;2022-07-04T03:19:26;100119.97;;;20.28;67.09
13719;BME280;6931;51.100;17.068;2022-07-04T03:21:53;100122.47;;;20.26;67.33
13719;BME280;6931;51.100;17.068;2022-07-04T03:24:20;100109.47;;;20.28;67.17
13719;BME280;6931;51.100;17.068;2022-07-04T03:26:46;100114.66;;;20.30;67.24
13719;BME280;6931;51.100;17.068;2022-07-04T03:29:13;100115.41;;;20.21;67.56
13719;BME280;6931;51.100;17.068;2022-07-04T03:31:40;100122.19;;;20.33;67.20
13719;BME280;6931;51.100;17.068;2022-07-04T03:34:06;100110.09;;;20.32;66.75
13719;BME280;6931;51.100;17.068;2022-07-04T03:36:33;100128.50;;;20.37;66.92
13719;BME280;6931;51.100;17.068;2022-07-04T03:38:59;100119.22;;;20.36;66.90
13719;BME280;6931;51.100;17.068;2022-07-04T03:41:26;100122.38;;;20.38;67.02
13719;BME280;6931;51.100;17.068;2022-07-04T03:43:53;100120.53;;;20.44;66.45
13719;BME280;6931;51.100;17.068;2022-07-04T03:46:19;100120.78;;;20.28;67.53
13719;BME280;6931;51.100;17.068;2022-07-04T03:48:46;100126.31;;;20.41;66.92
13719;BME280;6931;51.100;17.068;2022-07-04T03:51:13;100125.31;;;20.26;67.73
13719;BME280;6931;51.100;17.068;2022-07-04T03:53:40;100123.81;;;20.43;66.82
13719;BME280;6931;51.100;17.068;2022-07-04T03:56:06;100125.88;;;20.12;68.10
13719;BME280;6931;51.100;17.068;2022-07-04T03:58:34;100118.59;;;19.71;68.80
13719;BME280;6931;51.100;17.068;2022-07-04T04:01:01;100117.69;;;20.14;67.99
13719;BME280;6931;51.100;17.068;2022-07-04T04:03:28;100123.31;;;20.05;68.01
13719;BME280;6931;51.100;17.068;2022-07-04T04:06:14;100123.47;;;20.10;68.12
13719;BME280;6931;51.100;17.068;2022-07-04T04:08:40;100133.22;;;20.31;67.67
13719;BME280;6931;51.100;17.068;2022-07-04T04:11:07;100121.19;;;20.18;68.27
13719;BME280;6931;51.100;17.068;2022-07-04T04:13:34;100122.53;;;20.04;68.87
13719;BME280;6931;51.100;17.068;2022-07-04T04:16:00;100121.09;;;20.00;69.13
13719;BME280;6931;51.100;17.068;2022-07-04T04:18:27;100126.91;;;19.96;69.51
13719;BME280;6931;51.100;17.068;2022-07-04T04:20:54;100122.31;;;20.20;68.82
13719;BME280;6931;51.100;17.068;2022-07-04T04:23:20;100125.78;;;20.24;68.90
13719;BME280;6931;51.100;17.068;2022-07-04T04:25:47;100120.72;;;20.19;69.02
13719;BME280;6931;51.100;17.068;2022-07-04T04:28:21;100116.66;;;20.20;68.97
13719;BME280;6931;51.100;17.068;2022-07-04T04:30:48;100111.78;;;20.21;68.83
13719;BME280;6931;51.100;17.068;2022-07-04T04:33:14;100118.09;;;20.25;68.86
13719;BME280;6931;51.100;17.068;2022-07-04T04:35:41;100111.25;;;20.13;69.32
13719;BME280;6931;51.100;17.068;2022-07-04T04:38:08;100100.78;;;20.23;68.63
13719;BME280;6931;51.100;17.068;2022-07-04T04:40:35;100101.41;;;20.18;69.22
13719;BME280;6931;51.100;17.068;2022-07-04T04:43:02;100110.09;;;20.41;68.32
13719;BME280;6931;51.100;17.068;2022-07-04T04:45:28;100109.31;;;20.32;68.78
13719;BME280;6931;51.100;17.068;2022-07-04T04:47:55;100106.31;;;19.96;69.78
13719;BME280;6931;51.100;17.068;2022-07-04T04:50:22;100111.16;;;20.26;68.93
13719;BME280;6931;51.100;17.068;2022-07-04T04:52:48;100111.06;;;20.38;68.42
13719;BME280;6931;51.100;17.068;2022-07-04T04:55:15;100109.22;;;20.54;67.98
13719;BME280;6931;51.100;17.068;2022-07-04T04:57:41;100106.84;;;20.52;68.34
13719;BME280;6931;51.100;17.068;2022-07-04T05:00:08;100114.41;;;20.55;68.09
13719;BME280;6931;51.100;17.068;2022-07-04T05:02:35;100105.00;;;20.67;67.65
13719;BME280;6931;51.100;17.068;2022-07-04T05:05:02;100102.16;;;20.67;67.96
13719;BME280;6931;51.100;17.068;2022-07-04T05:07:28;100110.19;;;20.69;67.56
13719;BME280;6931;51.100;17.068;2022-07-04T05:09:55;100116.13;;;20.52;68.09
13719;BME280;6931;51.100;17.068;2022-07-04T05:12:26;100108.28;;;20.57;68.37
13719;BME280;6931;51.100;17.068;2022-07-04T05:14:53;100104.44;;;20.41;68.75
13719;BME280;6931;51.100;17.068;2022-07-04T05:17:20;100100.28;;;20.73;67.95
13719;BME280;6931;51.100;17.068;2022-07-04T05:19:47;100101.88;;;20.92;67.42
13719;BME280;6931;51.100;17.068;2022-07-04T05:22:14;100112.44;;;21.01;67.69
13719;BME280;6931;51.100;17.068;2022-07-04T05:24:41;100117.00;;;21.07;67.36
13719;BME280;6931;51.100;17.068;2022-07-04T05:27:09;100110.25;;;21.14;66.56
13719;BME280;6931;51.100;17.068;2022-07-04T05:29:36;100116.38;;;21.30;67.14
13719;BME280;6931;51.100;17.068;2022-07-04T05:32:06;100113.06;;;21.41;66.03
13719;BME280;6931;51.100;17.068;2022-07-04T05:34:34;100117.03;;;21.25;65.99
13719;BME280;6931;51.100;17.068;2022-07-04T05:37:01;100121.41;;;21.35;65.61
13719;BME280;6931;51.100;17.068;2022-07-04T05:39:29;100125.97;;;21.51;65.67
13719;BME280;6931;51.100;17.068;2022-07-04T05:41:55;100138.56;;;21.50;64.62
13719;BME280;6931;51.100;17.068;2022-07-04T05:44:22;100133.97;;;21.61;64.56
13719;BME280;6931;51.100;17.068;2022-07-04T05:46:49;100137.78;;;21.58;63.76
13719;BME280;6931;51.100;17.068;2022-07-04T05:49:16;100141.25;;;21.63;63.77
13719;BME280;6931;51.100;17.068;2022-07-04T05:51:42;100144.06;;;21.81;63.21
13719;BME280;6931;51.100;17.068;2022-07-04T05:54:09;100142.75;;;21.91;62.81
13719;BME280;6931;51.100;17.068;2022-07-04T05:56:35;100140.06;;;22.05;63.16
13719;BME280;6931;51.100;17.068;2022-07-04T05:59:04;100138.59;;;22.10;61.34
13719;BME280;6931;51.100;17.068;2022-07-04T06:01:30;100136.84;;;22.21;61.24
13719;BME280;6931;51.100;17.068;2022-07-04T06:03:57;100137.28;;;22.29;59.86
13719;BME280;6931;51.100;17.068;2022-07-04T06:06:23;100143.41;;;22.36;59.12
13719;BME280;6931;51.100;17.068;2022-07-04T06:08:50;100139.09;;;22.41;59.22
13719;BME280;6931;51.100;17.068;2022-07-04T06:11:16;100147.75;;;22.46;60.20
13719;BME280;6931;51.100;17.068;2022-07-04T06:13:44;100155.28;;;22.58;60.63
13719;BME280;6931;51.100;17.068;2022-07-04T06:16:11;100168.25;;;22.59;60.18
13719;BME280;6931;51.100;17.068;2022-07-04T06:18:37;100150.72;;;22.61;60.26
13719;BME280;6931;51.100;17.068;2022-07-04T06:21:04;100180.63;;;22.71;59.74
13719;BME280;6931;51.100;17.068;2022-07-04T06:23:31;100169.72;;;22.79;59.24
13719;BME280;6931;51.100;17.068;2022-07-04T06:25:57;100168.56;;;22.85;59.05
13719;BME280;6931;51.100;17.068;2022-07-04T06:28:24;100176.06;;;22.97;59.85
13719;BME280;6931;51.100;17.068;2022-07-04T06:31:11;100170.81;;;23.05;56.43
13719;BME280;6931;51.100;17.068;2022-07-04T06:33:38;100170.84;;;23.19;55.88
13719;BME280;6931;51.100;17.068;2022-07-04T06:36:23;100170.81;;;23.28;57.45
13719;BME280;6931;51.100;17.068;2022-07-04T06:38:50;100162.09;;;23.32;56.76
13719;BME280;6931;51.100;17.068;2022-07-04T06:41:17;100165.63;;;23.41;56.28
13719;BME280;6931;51.100;17.068;2022-07-04T06:43:44;100163.41;;;23.45;54.23
13719;BME280;6931;51.100;17.068;2022-07-04T06:46:10;100152.31;;;23.47;54.83
13719;BME280;6931;51.100;17.068;2022-07-04T06:48:37;100164.38;;;23.57;55.45
13719;BME280;6931;51.100;17.068;2022-07-04T06:51:04;100172.72;;;23.60;57.05
13719;BME280;6931;51.100;17.068;2022-07-04T06:53:30;100170.09;;;23.57;56.37
13719;BME280;6931;51.100;17.068;2022-07-04T06:55:57;100164.31;;;23.66;56.89
13719;BME280;6931;51.100;17.068;2022-07-04T06:58:24;100170.41;;;23.73;56.11
13719;BME280;6931;51.100;17.068;2022-07-04T07:00:50;100166.19;;;23.83;56.58
13719;BME280;6931;51.100;17.068;2022-07-04T07:03:17;100163.75;;;23.91;56.62
13719;BME280;6931;51.100;17.068;2022-07-04T07:05:44;100166.03;;;24.02;55.51
13719;BME280;6931;51.100;17.068;2022-07-04T07:08:27;100167.31;;;24.15;54.82
13719;BME280;6931;51.100;17.068;2022-07-04T07:10:55;100155.53;;;24.22;54.74
13719;BME280;6931;51.100;17.068;2022-07-04T07:13:22;100157.97;;;24.29;54.77
13719;BME280;6931;51.100;17.068;2022-07-04T07:15:49;100165.41;;;24.41;53.87
13719;BME280;6931;51.100;17.068;2022-07-04T07:18:15;100162.38;;;24.45;52.72
13719;BME280;6931;51.100;17.068;2022-07-04T07:20:42;100163.50;;;24.53;52.36
13719;BME280;6931;51.100;17.068;2022-07-04T07:23:10;100157.00;;;24.67;52.63
13719;BME280;6931;51.100;17.068;2022-07-04T07:25:36;100161.53;;;24.73;51.88
13719;BME280;6931;51.100;17.068;2022-07-04T07:28:03;100169.72;;;24.86;54.62
13719;BME280;6931;51.100;17.068;2022-07-04T07:30:30;100151.25;;;24.81;51.31
13719;BME280;6931;51.100;17.068;2022-07-04T07:32:56;100145.63;;;24.87;51.08
13719;BME280;6931;51.100;17.068;2022-07-04T07:35:23;100162.69;;;25.02;51.10
13719;BME280;6931;51.100;17.068;2022-07-04T07:37:50;100162.97;;;25.04;50.75
13719;BME280;6931;51.100;17.068;2022-07-04T07:40:16;100157.31;;;25.09;50.99
13719;BME280;6931;51.100;17.068;2022-07-04T07:42:43;100163.59;;;25.13;50.83
13719;BME280;6931;51.100;17.068;2022-07-04T07:45:10;100159.97;;;25.13;51.61
13719;BME280;6931;51.100;17.068;2022-07-04T07:47:36;100167.66;;;25.27;51.01
13719;BME280;6931;51.100;17.068;2022-07-04T07:50:04;100161.75;;;25.30;52.11
13719;BME280;6931;51.100;17.068;2022-07-04T07:52:30;100163.69;;;25.39;51.53
13719;BME280;6931;51.100;17.068;2022-07-04T07:54:57;100153.16;;;25.45;52.06
13719;BME280;6931;51.100;17.068;2022-07-04T07:57:27;100153.94;;;25.45;51.68
13719;BME280;6931;51.100;17.068;2022-07-04T07:59:53;100160.19;;;25.49;50.97
13719;BME280;6931;51.100;17.068;2022-07-04T08:02:20;100167.91;;;25.43;51.66
13719;BME280;6931;51.100;17.068;2022-07-04T08:05:07;100164.19;;;25.57;53.01
13719;BME280;6931;51.100;17.068;2022-07-04T08:07:34;100143.28;;;25.46;52.59
13719;BME280;6931;51.100;17.068;2022-07-04T08:10:01;100172.75;;;25.57;50.37
13719;BME280;6931;51.100;17.068;2022-07-04T08:12:28;100162.31;;;25.54;50.15
13719;BME280;6931;51.100;17.068;2022-07-04T08:14:55;100165.59;;;25.67;50.36
13719;BME280;6931;51.100;17.068;2022-07-04T08:17:21;100164.84;;;25.72;49.51
13719;BME280;6931;51.100;17.068;2022-07-04T08:19:48;100166.38;;;25.68;49.15
13719;BME280;6931;51.100;17.068;2022-07-04T08:22:15;100171.63;;;25.75;49.86
13719;BME280;6931;51.100;17.068;2022-07-04T08:24:43;100164.13;;;25.77;49.30
13719;BME280;6931;51.100;17.068;2022-07-04T08:27:11;100162.66;;;25.87;50.53
13719;BME280;6931;51.100;17.068;2022-07-04T08:29:38;100161.44;;;25.94;50.25
13719;BME280;6931;51.100;17.068;2022-07-04T08:32:05;100154.81;;;26.03;49.78
13719;BME280;6931;51.100;17.068;2022-07-04T08:34:35;100162.88;;;26.04;48.68
13719;BME280;6931;51.100;17.068;2022-07-04T08:37:02;100169.63;;;26.07;48.10
13719;BME280;6931;51.100;17.068;2022-07-04T08:39:28;100171.69;;;26.06;47.65
13719;BME280;6931;51.100;17.068;2022-07-04T08:41:56;100167.16;;;26.20;48.10
13719;BME280;6931;51.100;17.068;2022-07-04T08:44:27;100167.94;;;26.20;47.29
13719;BME280;6931;51.100;17.068;2022-07-04T08:46:54;100167.75;;;26.29;48.27
13719;BME280;6931;51.100;17.068;2022-07-04T08:49:23;100172.91;;;26.25;48.85
13719;BME280;6931;51.100;17.068;2022-07-04T08:52:04;100182.53;;;26.28;50.58
13719;BME280;6931;51.100;17.068;2022-07-04T08:54:32;100185.28;;;26.17;48.64
13719;BME280;6931;51.100;17.068;2022-07-04T08:57:18;100185.97;;;26.06;49.55
13719;BME280;6931;51.100;17.068;2022-07-04T09:00:05;100198.09;;;26.01;49.28
13719;BME280;6931;51.100;17.068;2022-07-04T09:02:34;100199.47;;;26.06;49.82
13719;BME280;6931;51.100;17.068;2022-07-04T09:05:03;100188.66;;;26.15;50.72
13719;BME280;6931;51.100;17.068;2022-07-04T09:07:31;100207.22;;;26.31;49.34
13719;BME280;6931;51.100;17.068;2022-07-04T09:09:58;100218.56;;;26.20;47.69
13719;BME280;6931;51.100;17.068;2022-07-04T09:12:25;100216.97;;;26.19;49.26
13719;BME280;6931;51.100;17.068;2022-07-04T09:14:52;100204.75;;;26.13;49.67
13719;BME280;6931;51.100;17.068;2022-07-04T09:17:18;100202.75;;;25.98;49.51
13719;BME280;6931;51.100;17.068;2022-07-04T09:19:45;100207.66;;;25.98;50.72
13719;BME280;6931;51.100;17.068;2022-07-04T09:22:31;100207.78;;;25.83;49.76
13719;BME280;6931;51.100;17.068;2022-07-04T09:24:57;100209.13;;;25.88;50.95
13719;BME280;6931;51.100;17.068;2022-07-04T09:27:33;100199.72;;;25.82;51.93
13719;BME280;6931;51.100;17.068;2022-07-04T09:30:01;100214.63;;;25.91;51.85
13719;BME280;6931;51.100;17.068;2022-07-04T09:32:37;100215.06;;;25.84;51.37
13719;BME280;6931;51.100;17.068;2022-07-04T09:35:07;100205.94;;;25.80;50.92
13719;BME280;6931;51.100;17.068;2022-07-04T09:37:44;100206.78;;;25.86;51.22
13719;BME280;6931;51.100;17.068;2022-07-04T09:42:49;100222.22;;;26.00;51.33
13719;BME280;6931;51.100;17.068;2022-07-04T09:45:16;100213.59;;;25.94;50.97
13719;BME280;6931;51.100;17.068;2022-07-04T09:47:45;100204.53;;;25.96;51.31
13719;BME280;6931;51.100;17.068;2022-07-04T09:50:17;100205.25;;;25.91;51.25
13719;BME280;6931;51.100;17.068;2022-07-04T09:57:51;100220.78;;;25.84;51.60
13719;BME280;6931;51.100;17.068;2022-07-04T10:00:25;100227.78;;;25.63;51.56
13719;BME280;6931;51.100;17.068;2022-07-04T10:02:54;100229.53;;;25.55;51.77
13719;BME280;6931;51.100;17.068;2022-07-04T10:05:28;100230.25;;;25.50;51.89
13719;BME280;6931;51.100;17.068;2022-07-04T10:07:57;100226.81;;;25.46;51.85
13719;BME280;6931;51.100;17.068;2022-07-04T10:10:31;100223.22;;;25.51;52.21
13719;BME280;6931;51.100;17.068;2022-07-04T10:15:32;100223.16;;;25.46;52.85
13719;BME280;6931;51.100;17.068;2022-07-04T10:17:59;100203.47;;;25.48;52.96
13719;BME280;6931;51.100;17.068;2022-07-04T10:20:26;100219.19;;;25.38;52.90
13719;BME280;6931;51.100;17.068;2022-07-04T10:22:53;100227.59;;;25.47;52.85
13719;BME280;6931;51.100;17.068;2022-07-04T10:25:20;100228.16;;;25.51;53.40
13719;BME280;6931;51.100;17.068;2022-07-04T10:27:46;100221.59;;;25.45;53.23
13719;BME280;6931;51.100;17.068;2022-07-04T10:30:36;100223.09;;;25.60;53.07
13719;BME280;6931;51.100;17.068;2022-07-04T10:33:08;100229.41;;;25.70;52.97
13719;BME280;6931;51.100;17.068;2022-07-04T10:35:58;100219.97;;;25.84;53.84
13719;BME280;6931;51.100;17.068;2022-07-04T10:38:32;100216.75;;;25.96;53.04
13719;BME280;6931;51.100;17.068;2022-07-04T10:41:05;100215.63;;;25.88;52.44
13719;BME280;6931;51.100;17.068;2022-07-04T10:48:59;100224.16;;;26.09;52.18
13719;BME280;6931;51.100;17.068;2022-07-04T10:56:53;100221.88;;;26.13;52.60
13719;BME280;6931;51.100;17.068;2022-07-04T11:18:01;100190.34;;;26.64;51.87
13719;BME280;6931;51.100;17.068;2022-07-04T11:20:30;100177.44;;;26.74;52.29
13719;BME280;6931;51.100;17.068;2022-07-04T11:23:08;100183.44;;;26.76;51.59
13719;BME280;6931;51.100;17.068;2022-07-04T11:25:35;100185.44;;;27.01;52.18
13719;BME280;6931;51.100;17.068;2022-07-04T11:31:07;100180.72;;;27.46;50.10
13719;BME280;6931;51.100;17.068;2022-07-04T11:33:34;100176.59;;;27.58;48.06
13719;BME280;6931;51.100;17.068;2022-07-04T11:36:32;100167.53;;;27.70;48.97
13719;BME280;6931;51.100;17.068;2022-07-04T11:39:01;100167.53;;;27.81;49.07
13719;BME280;6931;51.100;17.068;2022-07-04T11:41:30;100172.56;;;28.08;48.64
13719;BME280;6931;51.100;17.068;2022-07-04T11:44:17;100172.00;;;27.93;45.58
13719;BME280;6931;51.100;17.068;2022-07-04T11:49:42;100177.22;;;27.95;46.31
13719;BME280;6931;51.100;17.068;2022-07-04T11:52:08;100161.88;;;28.09;46.52
13719;BME280;6931;51.100;17.068;2022-07-04T11:54:35;100144.19;;;28.05;45.42
13719;BME280;6931;51.100;17.068;2022-07-04T11:59:58;100153.84;;;28.52;45.55
13719;BME280;6931;51.100;17.068;2022-07-04T12:02:27;100148.34;;;28.59;45.98
13719;BME280;6931;51.100;17.068;2022-07-04T12:04:55;100160.28;;;28.80;46.40
13719;BME280;6931;51.100;17.068;2022-07-04T12:07:24;100153.47;;;28.94;43.55
13719;BME280;6931;51.100;17.068;2022-07-04T12:09:52;100146.19;;;28.82;43.27
13719;BME280;6931;51.100;17.068;2022-07-04T12:12:20;100149.66;;;28.64;45.25
13719;BME280;6931;51.100;17.068;2022-07-04T12:15:05;100142.59;;;28.65;43.55
13719;BME280;6931;51.100;17.068;2022-07-04T12:17:38;100145.19;;;28.79;40.92
13719;BME280;6931;51.100;17.068;2022-07-04T12:20:15;100151.66;;;28.80;42.39
13719;BME280;6931;51.100;17.068;2022-07-04T12:22:53;100139.97;;;28.78;38.99
13719;BME280;6931;51.100;17.068;2022-07-04T12:25:34;100144.72;;;28.59;41.99
13719;BME280;6931;51.100;17.068;2022-07-04T12:28:11;100139.72;;;28.70;40.36
13719;BME280;6931;51.100;17.068;2022-07-04T12:30:40;100143.38;;;28.65;40.90
13719;BME280;6931;51.100;17.068;2022-07-04T12:33:08;100134.00;;;28.70;39.28
13719;BME280;6931;51.100;17.068;2022-07-04T12:41:02;100140.97;;;28.91;41.41
13719;BME280;6931;51.100;17.068;2022-07-04T12:46:10;100147.84;;;29.40;41.24
13719;BME280;6931;51.100;17.068;2022-07-04T12:48:38;100146.09;;;29.26;37.59
13719;BME280;6931;51.100;17.068;2022-07-04T12:51:17;100131.91;;;29.39;37.63
13719;BME280;6931;51.100;17.068;2022-07-04T12:53:46;100143.84;;;29.54;36.64
13719;BME280;6931;51.100;17.068;2022-07-04T12:58:55;100138.31;;;29.15;37.19
13719;BME280;6931;51.100;17.068;2022-07-04T13:01:22;100152.19;;;28.78;39.14
13719;BME280;6931;51.100;17.068;2022-07-04T13:03:49;100149.38;;;28.62;40.76
13719;BME280;6931;51.100;17.068;2022-07-04T13:06:15;100151.47;;;28.45;41.26
13719;BME280;6931;51.100;17.068;2022-07-04T13:08:42;100139.22;;;28.50;43.32
13719;BME280;6931;51.100;17.068;2022-07-04T13:11:09;100146.22;;;28.49;43.16
13719;BME280;6931;51.100;17.068;2022-07-04T13:13:59;100138.69;;;28.46;43.81
13719;BME280;6931;51.100;17.068;2022-07-04T13:16:25;100144.16;;;28.44;41.32
13719;BME280;6931;51.100;17.068;2022-07-04T13:18:52;100144.69;;;28.42;43.60
13719;BME280;6931;51.100;17.068;2022-07-04T13:21:19;100149.66;;;28.25;44.83
13719;BME280;6931;51.100;17.068;2022-07-04T13:23:46;100140.78;;;28.62;43.93
13719;BME280;6931;51.100;17.068;2022-07-04T13:26:13;100149.34;;;28.73;41.62
13719;BME280;6931;51.100;17.068;2022-07-04T13:28:39;100144.66;;;28.81;39.61
13719;BME280;6931;51.100;17.068;2022-07-04T13:31:07;100148.66;;;29.35;35.95
13719;BME280;6931;51.100;17.068;2022-07-04T13:33:34;100144.66;;;29.49;37.73
13719;BME280;6931;51.100;17.068;2022-07-04T13:36:00;100151.66;;;29.59;37.46
13719;BME280;6931;51.100;17.068;2022-07-04T13:38:27;100142.09;;;29.40;36.07
13719;BME280;6931;51.100;17.068;2022-07-04T13:40:55;100144.22;;;29.28;38.25
13719;BME280;6931;51.100;17.068;2022-07-04T13:43:25;100143.16;;;29.37;39.83
13719;BME280;6931;51.100;17.068;2022-07-04T13:45:54;100144.25;;;29.23;38.87
13719;BME280;6931;51.100;17.068;2022-07-04T13:48:21;100143.78;;;29.08;38.56
13719;BME280;6931;51.100;17.068;2022-07-04T13:50:48;100141.72;;;29.03;39.86
13719;BME280;6931;51.100;17.068;2022-07-04T13:53:14;100144.09;;;28.88;38.75
13719;BME280;6931;51.100;17.068;2022-07-04T13:55:41;100144.31;;;28.95;41.33
13719;BME280;6931;51.100;17.068;2022-07-04T13:58:14;100132.47;;;29.32;41.83